sensor_id;sensor_type;location;lat;lon;timestamp;temperature;humidity
66594;DHT22;53450;42.584;23.366;2023-05-10T00:02:08;7.35;87.95
66594;DHT22;53450;42.584;23.366;2023-05-10T00:04:33;7.32;88.33
66594;DHT22;53450;42.584;23.366;2023-05-10T00:06:59;7.28;87.98
66594;DHT22;53450;42.584;23.366;2023-05-10T00:09:24;7.24;87.67
66594;DHT22;53450;42.584;23.366;2023-05-10T00:11:54;7.21;87.64
66594;DHT22;53450;42.584;23.366;2023-05-10T00:14:20;7.22;87.98
66594;DHT22;53450;42.584;23.366;2023-05-10T00:16:46;7.22;87.82
66594;DHT22;53450;42.584;23.366;2023-05-10T00:19:11;7.24;88.12
66594;DHT22;53450;42.584;23.366;2023-05-10T00:21:39;7.21;88.16
66594;DHT22;53450;42.584;23.366;2023-05-10T00:24:05;7.12;88.08
66594;DHT22;53450;42.584;23.366;2023-05-10T00:26:31;7.14;87.88
66594;DHT22;53450;42.584;23.366;2023-05-10T00:28:57;7.15;88.03
66594;DHT22;53450;42.584;23.366;2023-05-10T00:31:23;7.11;87.94
66594;DHT22;53450;42.584;23.366;2023-05-10T00:33:49;7.10;87.62
66594;DHT22;53450;42.584;23.366;2023-05-10T00:36:15;7.11;87.41
66594;DHT22;53450;42.584;23.366;2023-05-10T00:38:40;7.12;87.77
66594;DHT22;53450;42.584;23.366;2023-05-10T00:41:31;7.17;87.90
66594;DHT22;53450;42.584;23.366;2023-05-10T00:43:59;7.15;87.79
66594;DHT22;53450;42.584;23.366;2023-05-10T00:46:25;7.10;87.93
66594;DHT22;53450;42.584;23.366;2023-05-10T00:48:51;7.10;87.94
66594;DHT22;53450;42.584;23.366;2023-05-10T00:51:17;7.10;88.15
66594;DHT22;53450;42.584;23.366;2023-05-10T00:53:45;7.11;88.11
66594;DHT22;53450;42.584;23.366;2023-05-10T00:56:11;7.03;88.12
66594;DHT22;53450;42.584;23.366;2023-05-10T00:58:38;7.04;87.83
66594;DHT22;53450;42.584;23.366;2023-05-10T01:01:05;7.12;87.77
66594;DHT22;53450;42.584;23.366;2023-05-10T01:03:32;7.14;87.74
66594;DHT22;53450;42.584;23.366;2023-05-10T01:05:57;7.05;87.67
66594;DHT22;53450;42.584;23.366;2023-05-10T01:08:24;7.04;87.75
66594;DHT22;53450;42.584;23.366;2023-05-10T01:10:50;7.01;87.99
66594;DHT22;53450;42.584;23.366;2023-05-10T01:13:37;7.07;87.93
66594;DHT22;53450;42.584;23.366;2023-05-10T01:16:04;7.00;87.76
66594;DHT22;53450;42.584;23.366;2023-05-10T01:18:35;7.05;87.91
66594;DHT22;53450;42.584;23.366;2023-05-10T01:32:16;7.07;87.77
66594;DHT22;53450;42.584;23.366;2023-05-10T01:35:03;7.05;88.08
66594;DHT22;53450;42.584;23.366;2023-05-10T01:37:42;7.00;87.80
66594;DHT22;53450;42.584;23.366;2023-05-10T01:40:35;6.89;87.76
66594;DHT22;53450;42.584;23.366;2023-05-10T01:43:04;6.81;87.46
66594;DHT22;53450;42.584;23.366;2023-05-10T01:45:41;6.84;87.50
66594;DHT22;53450;42.584;23.366;2023-05-10T01:48:10;6.86;87.47
66594;DHT22;53450;42.584;23.366;2023-05-10T01:50:39;6.91;87.09
66594;DHT22;53450;42.584;23.366;2023-05-10T01:53:08;6.86;87.30
66594;DHT22;53450;42.584;23.366;2023-05-10T01:55:43;6.69;87.16
66594;DHT22;53450;42.584;23.366;2023-05-10T01:58:14;6.57;86.76
66594;DHT22;53450;42.584;23.366;2023-05-10T02:00:43;6.65;86.46
66594;DHT22;53450;42.584;23.366;2023-05-10T02:03:10;6.68;86.47
66594;DHT22;53450;42.584;23.366;2023-05-10T02:05:38;6.62;86.53
66594;DHT22;53450;42.584;23.366;2023-05-10T02:08:07;6.56;86.84
66594;DHT22;53450;42.584;23.366;2023-05-10T02:10:36;6.54;86.95
66594;DHT22;53450;42.584;23.366;2023-05-10T02:13:03;6.52;87.24
66594;DHT22;53450;42.584;23.366;2023-05-10T02:15:32;6.56;87.30
66594;DHT22;53450;42.584;23.366;2023-05-10T02:17:59;6.49;87.61
66594;DHT22;53450;42.584;23.366;2023-05-10T02:20:26;6.43;87.70
66594;DHT22;53450;42.584;23.366;2023-05-10T02:22:53;6.50;87.49
66594;DHT22;53450;42.584;23.366;2023-05-10T02:25:21;6.52;87.20
66594;DHT22;53450;42.584;23.366;2023-05-10T02:28:14;6.39;87.14
66594;DHT22;53450;42.584;23.366;2023-05-10T02:30:40;6.42;86.98
66594;DHT22;53450;42.584;23.366;2023-05-10T02:33:06;6.42;86.18
66594;DHT22;53450;42.584;23.366;2023-05-10T02:35:33;6.21;85.52
66594;DHT22;53450;42.584;23.366;2023-05-10T02:38:01;6.14;85.19
66594;DHT22;53450;42.584;23.366;2023-05-10T02:40:29;6.11;84.97
66594;DHT22;53450;42.584;23.366;2023-05-10T02:42:56;6.02;84.62
66594;DHT22;53450;42.584;23.366;2023-05-10T02:45:28;6.12;84.57
66594;DHT22;53450;42.584;23.366;2023-05-10T02:47:55;6.08;83.88
66594;DHT22;53450;42.584;23.366;2023-05-10T02:50:21;5.97;84.38
66594;DHT22;53450;42.584;23.366;2023-05-10T02:52:50;6.02;84.16
66594;DHT22;53450;42.584;23.366;2023-05-10T02:55:22;5.94;83.81
66594;DHT22;53450;42.584;23.366;2023-05-10T02:57:51;5.87;83.90
66594;DHT22;53450;42.584;23.366;2023-05-10T03:00:17;5.75;84.55
66594;DHT22;53450;42.584;23.366;2023-05-10T03:02:43;5.75;84.77
66594;DHT22;53450;42.584;23.366;2023-05-10T03:05:09;5.74;85.22
66594;DHT22;53450;42.584;23.366;2023-05-10T03:07:35;5.59;85.27
66594;DHT22;53450;42.584;23.366;2023-05-10T03:10:27;5.62;85.29
66594;DHT22;53450;42.584;23.366;2023-05-10T03:13:31;5.63;85.06
66594;DHT22;53450;42.584;23.366;2023-05-10T03:16:16;5.54;85.38
66594;DHT22;53450;42.584;23.366;2023-05-10T03:19:03;5.59;85.31
66594;DHT22;53450;42.584;23.366;2023-05-10T03:21:31;5.60;85.37
66594;DHT22;53450;42.584;23.366;2023-05-10T03:24:01;5.60;85.43
66594;DHT22;53450;42.584;23.366;2023-05-10T03:26:31;5.62;85.12
66594;DHT22;53450;42.584;23.366;2023-05-10T03:29:06;5.60;85.03
66594;DHT22;53450;42.584;23.366;2023-05-10T03:31:32;5.59;85.29
66594;DHT22;53450;42.584;23.366;2023-05-10T03:33:59;5.60;85.20
66594;DHT22;53450;42.584;23.366;2023-05-10T03:36:26;5.57;84.83
66594;DHT22;53450;42.584;23.366;2023-05-10T03:38:52;5.57;84.84
66594;DHT22;53450;42.584;23.366;2023-05-10T03:41:18;5.62;85.02
66594;DHT22;53450;42.584;23.366;2023-05-10T03:43:43;5.54;85.29
66594;DHT22;53450;42.584;23.366;2023-05-10T03:46:09;5.50;85.15
66594;DHT22;53450;42.584;23.366;2023-05-10T03:48:34;5.53;85.14
66594;DHT22;53450;42.584;23.366;2023-05-10T03:51:00;5.53;84.92
66594;DHT22;53450;42.584;23.366;2023-05-10T03:53:26;5.56;85.11
66594;DHT22;53450;42.584;23.366;2023-05-10T03:55:52;5.50;85.07
66594;DHT22;53450;42.584;23.366;2023-05-10T03:58:17;5.60;85.50
66594;DHT22;53450;42.584;23.366;2023-05-10T04:00:44;5.56;85.14
66594;DHT22;53450;42.584;23.366;2023-05-10T04:03:12;5.53;85.65
66594;DHT22;53450;42.584;23.366;2023-05-10T04:05:37;5.63;85.80
66594;DHT22;53450;42.584;23.366;2023-05-10T04:08:03;5.67;85.01
66594;DHT22;53450;42.584;23.366;2023-05-10T04:10:29;5.62;84.72
66594;DHT22;53450;42.584;23.366;2023-05-10T04:12:55;5.62;85.33
66594;DHT22;53450;42.584;23.366;2023-05-10T04:15:20;5.63;85.70
66594;DHT22;53450;42.584;23.366;2023-05-10T04:17:46;5.60;85.70
66594;DHT22;53450;42.584;23.366;2023-05-10T04:20:12;5.69;85.81
66594;DHT22;53450;42.584;23.366;2023-05-10T04:22:38;5.70;86.12
66594;DHT22;53450;42.584;23.366;2023-05-10T04:25:04;5.70;85.81
66594;DHT22;53450;42.584;23.366;2023-05-10T04:27:30;5.70;86.03
66594;DHT22;53450;42.584;23.366;2023-05-10T04:29:56;5.69;86.43
66594;DHT22;53450;42.584;23.366;2023-05-10T04:32:22;5.73;86.61
66594;DHT22;53450;42.584;23.366;2023-05-10T04:34:48;5.66;86.50
66594;DHT22;53450;42.584;23.366;2023-05-10T04:37:13;5.69;86.67
66594;DHT22;53450;42.584;23.366;2023-05-10T04:39:39;5.67;86.75
66594;DHT22;53450;42.584;23.366;2023-05-10T04:42:04;5.66;86.64
66594;DHT22;53450;42.584;23.366;2023-05-10T04:44:34;5.64;86.67
66594;DHT22;53450;42.584;23.366;2023-05-10T04:47:00;5.70;86.78
66594;DHT22;53450;42.584;23.366;2023-05-10T04:49:26;5.67;86.63
66594;DHT22;53450;42.584;23.366;2023-05-10T04:51:51;5.75;86.26
66594;DHT22;53450;42.584;23.366;2023-05-10T04:54:17;5.80;86.00
66594;DHT22;53450;42.584;23.366;2023-05-10T04:56:42;5.75;85.98
66594;DHT22;53450;42.584;23.366;2023-05-10T04:59:08;5.80;86.05
66594;DHT22;53450;42.584;23.366;2023-05-10T05:01:33;5.75;86.22
66594;DHT22;53450;42.584;23.366;2023-05-10T05:03:59;5.77;86.26
66594;DHT22;53450;42.584;23.366;2023-05-10T05:06:25;5.74;86.32
66594;DHT22;53450;42.584;23.366;2023-05-10T05:08:52;5.75;86.27
66594;DHT22;53450;42.584;23.366;2023-05-10T05:11:18;5.73;85.42
66594;DHT22;53450;42.584;23.366;2023-05-10T05:13:43;5.70;85.59
66594;DHT22;53450;42.584;23.366;2023-05-10T05:16:09;5.62;85.22
66594;DHT22;53450;42.584;23.366;2023-05-10T05:18:36;5.64;85.77
66594;DHT22;53450;42.584;23.366;2023-05-10T05:21:01;5.66;85.76
66594;DHT22;53450;42.584;23.366;2023-05-10T05:23:27;5.62;86.08
66594;DHT22;53450;42.584;23.366;2023-05-10T05:25:53;5.75;86.40
66594;DHT22;53450;42.584;23.366;2023-05-10T05:28:20;5.77;85.95
66594;DHT22;53450;42.584;23.366;2023-05-10T05:30:46;5.78;85.79
66594;DHT22;53450;42.584;23.366;2023-05-10T05:33:13;5.93;86.51
66594;DHT22;53450;42.584;23.366;2023-05-10T05:35:39;5.89;85.62
66594;DHT22;53450;42.584;23.366;2023-05-10T05:38:04;5.84;85.44
66594;DHT22;53450;42.584;23.366;2023-05-10T05:40:30;5.86;85.40
66594;DHT22;53450;42.584;23.366;2023-05-10T05:42:56;5.83;85.36
66594;DHT22;53450;42.584;23.366;2023-05-10T05:45:21;5.80;85.67
66594;DHT22;53450;42.584;23.366;2023-05-10T05:47:47;5.77;85.51
66594;DHT22;53450;42.584;23.366;2023-05-10T05:50:12;5.74;85.42
66594;DHT22;53450;42.584;23.366;2023-05-10T05:52:38;5.75;85.49
66594;DHT22;53450;42.584;23.366;2023-05-10T05:55:04;5.80;85.54
66594;DHT22;53450;42.584;23.366;2023-05-10T05:57:30;5.80;85.99
66594;DHT22;53450;42.584;23.366;2023-05-10T05:59:57;5.90;85.89
66594;DHT22;53450;42.584;23.366;2023-05-10T06:02:23;5.91;85.84
66594;DHT22;53450;42.584;23.366;2023-05-10T06:04:48;5.97;85.73
66594;DHT22;53450;42.584;23.366;2023-05-10T06:07:39;5.94;86.20
66594;DHT22;53450;42.584;23.366;2023-05-10T06:10:32;5.93;86.02
66594;DHT22;53450;42.584;23.366;2023-05-10T06:12:57;5.93;85.93
66594;DHT22;53450;42.584;23.366;2023-05-10T06:15:23;5.95;86.47
66594;DHT22;53450;42.584;23.366;2023-05-10T06:17:49;5.84;86.21
66594;DHT22;53450;42.584;23.366;2023-05-10T06:20:15;5.83;86.53
66594;DHT22;53450;42.584;23.366;2023-05-10T06:22:41;5.95;86.48
66594;DHT22;53450;42.584;23.366;2023-05-10T06:25:08;5.98;86.23
66594;DHT22;53450;42.584;23.366;2023-05-10T06:27:59;6.17;86.16
66594;DHT22;53450;42.584;23.366;2023-05-10T06:30:25;6.07;85.50
66594;DHT22;53450;42.584;23.366;2023-05-10T06:32:54;6.00;85.58
66594;DHT22;53450;42.584;23.366;2023-05-10T06:35:19;6.04;85.61
66594;DHT22;53450;42.584;23.366;2023-05-10T06:37:45;6.05;85.48
66594;DHT22;53450;42.584;23.366;2023-05-10T06:40:12;6.08;85.18
66594;DHT22;53450;42.584;23.366;2023-05-10T06:42:37;6.14;85.51
66594;DHT22;53450;42.584;23.366;2023-05-10T06:45:03;6.07;85.59
66594;DHT22;53450;42.584;23.366;2023-05-10T06:47:29;6.04;85.74
66594;DHT22;53450;42.584;23.366;2023-05-10T06:49:54;6.04;85.26
66594;DHT22;53450;42.584;23.366;2023-05-10T06:52:21;6.08;85.47
66594;DHT22;53450;42.584;23.366;2023-05-10T06:54:47;6.02;85.83
66594;DHT22;53450;42.584;23.366;2023-05-10T06:57:12;6.07;85.53
66594;DHT22;53450;42.584;23.366;2023-05-10T06:59:40;5.94;85.23
66594;DHT22;53450;42.584;23.366;2023-05-10T07:02:06;5.97;85.54
66594;DHT22;53450;42.584;23.366;2023-05-10T07:04:31;6.11;85.70
66594;DHT22;53450;42.584;23.366;2023-05-10T07:06:57;6.07;85.52
66594;DHT22;53450;42.584;23.366;2023-05-10T07:09:22;6.14;85.63
66594;DHT22;53450;42.584;23.366;2023-05-10T07:11:49;6.12;85.52
66594;DHT22;53450;42.584;23.366;2023-05-10T07:14:15;6.17;85.54
66594;DHT22;53450;42.584;23.366;2023-05-10T07:16:40;6.14;85.72
66594;DHT22;53450;42.584;23.366;2023-05-10T07:19:06;6.29;85.64
66594;DHT22;53450;42.584;23.366;2023-05-10T07:21:32;6.25;85.80
66594;DHT22;53450;42.584;23.366;2023-05-10T07:23:57;6.28;85.44
66594;DHT22;53450;42.584;23.366;2023-05-10T07:26:23;6.29;85.79
66594;DHT22;53450;42.584;23.366;2023-05-10T07:28:49;6.39;86.00
66594;DHT22;53450;42.584;23.366;2023-05-10T07:31:14;6.32;85.42
66594;DHT22;53450;42.584;23.366;2023-05-10T07:33:40;6.28;85.63
66594;DHT22;53450;42.584;23.366;2023-05-10T07:36:06;6.28;85.87
66594;DHT22;53450;42.584;23.366;2023-05-10T07:38:32;6.15;86.31
66594;DHT22;53450;42.584;23.366;2023-05-10T07:40:57;6.24;86.29
66594;DHT22;53450;42.584;23.366;2023-05-10T07:43:23;6.17;86.23
66594;DHT22;53450;42.584;23.366;2023-05-10T07:45:48;6.25;86.40
66594;DHT22;53450;42.584;23.366;2023-05-10T07:48:14;6.25;86.03
66594;DHT22;53450;42.584;23.366;2023-05-10T07:50:39;6.31;86.16
66594;DHT22;53450;42.584;23.366;2023-05-10T07:53:05;6.41;86.24
66594;DHT22;53450;42.584;23.366;2023-05-10T07:55:31;6.39;85.19
66594;DHT22;53450;42.584;23.366;2023-05-10T07:57:56;6.33;85.38
66594;DHT22;53450;42.584;23.366;2023-05-10T08:00:22;6.38;85.95
66594;DHT22;53450;42.584;23.366;2023-05-10T08:02:48;6.28;85.86
66594;DHT22;53450;42.584;23.366;2023-05-10T08:05:16;6.39;85.57
66594;DHT22;53450;42.584;23.366;2023-05-10T08:07:42;6.35;85.47
66594;DHT22;53450;42.584;23.366;2023-05-10T08:10:08;6.42;85.90
66594;DHT22;53450;42.584;23.366;2023-05-10T08:12:34;6.42;85.02
66594;DHT22;53450;42.584;23.366;2023-05-10T08:15:00;6.41;85.15
66594;DHT22;53450;42.584;23.366;2023-05-10T08:17:26;6.32;85.35
66594;DHT22;53450;42.584;23.366;2023-05-10T08:19:51;6.36;85.58
66594;DHT22;53450;42.584;23.366;2023-05-10T08:22:17;6.42;86.14
66594;DHT22;53450;42.584;23.366;2023-05-10T08:24:42;6.62;86.45
66594;DHT22;53450;42.584;23.366;2023-05-10T08:27:08;6.59;85.76
66594;DHT22;53450;42.584;23.366;2023-05-10T08:29:34;6.57;85.72
66594;DHT22;53450;42.584;23.366;2023-05-10T08:32:24;6.48;86.05
66594;DHT22;53450;42.584;23.366;2023-05-10T08:34:50;6.53;86.03
66594;DHT22;53450;42.584;23.366;2023-05-10T08:37:15;6.53;85.60
66594;DHT22;53450;42.584;23.366;2023-05-10T08:39:41;6.50;85.50
66594;DHT22;53450;42.584;23.366;2023-05-10T08:42:07;6.56;85.48
66594;DHT22;53450;42.584;23.366;2023-05-10T08:44:35;6.68;85.83
66594;DHT22;53450;42.584;23.366;2023-05-10T08:47:06;6.73;85.51
66594;DHT22;53450;42.584;23.366;2023-05-10T08:49:58;6.63;85.19
66594;DHT22;53450;42.584;23.366;2023-05-10T08:52:51;6.57;85.16
66594;DHT22;53450;42.584;23.366;2023-05-10T08:55:18;6.68;85.25
66594;DHT22;53450;42.584;23.366;2023-05-10T08:57:44;6.73;85.75
66594;DHT22;53450;42.584;23.366;2023-05-10T09:00:10;6.62;85.57
66594;DHT22;53450;42.584;23.366;2023-05-10T09:02:36;6.72;85.93
66594;DHT22;53450;42.584;23.366;2023-05-10T09:05:03;6.79;85.95
66594;DHT22;53450;42.584;23.366;2023-05-10T09:07:29;6.72;85.59
66594;DHT22;53450;42.584;23.366;2023-05-10T09:09:56;6.60;85.38
66594;DHT22;53450;42.584;23.366;2023-05-10T09:12:23;6.65;85.38
66594;DHT22;53450;42.584;23.366;2023-05-10T09:14:50;6.50;85.72
66594;DHT22;53450;42.584;23.366;2023-05-10T09:17:16;6.57;86.19
66594;DHT22;53450;42.584;23.366;2023-05-10T09:19:41;6.59;86.25
66594;DHT22;53450;42.584;23.366;2023-05-10T09:22:07;6.73;86.14
66594;DHT22;53450;42.584;23.366;2023-05-10T09:24:32;6.83;86.01
66594;DHT22;53450;42.584;23.366;2023-05-10T09:26:58;6.83;85.83
66594;DHT22;53450;42.584;23.366;2023-05-10T09:29:24;6.90;85.54
66594;DHT22;53450;42.584;23.366;2023-05-10T09:31:51;6.86;85.42
66594;DHT22;53450;42.584;23.366;2023-05-10T09:34:22;6.89;85.76
66594;DHT22;53450;42.584;23.366;2023-05-10T09:36:58;6.83;85.87
66594;DHT22;53450;42.584;23.366;2023-05-10T09:39:36;6.99;85.56
66594;DHT22;53450;42.584;23.366;2023-05-10T09:42:03;6.94;85.48
66594;DHT22;53450;42.584;23.366;2023-05-10T09:44:30;6.96;85.15
66594;DHT22;53450;42.584;23.366;2023-05-10T09:46:56;7.00;84.29
66594;DHT22;53450;42.584;23.366;2023-05-10T09:49:22;7.07;84.35
66594;DHT22;53450;42.584;23.366;2023-05-10T09:52:00;7.15;84.58
66594;DHT22;53450;42.584;23.366;2023-05-10T09:54:54;7.30;84.20
66594;DHT22;53450;42.584;23.366;2023-05-10T09:57:26;7.31;84.40
66594;DHT22;53450;42.584;23.366;2023-05-10T09:59:52;7.30;84.36
66594;DHT22;53450;42.584;23.366;2023-05-10T10:02:19;7.39;84.05
66594;DHT22;53450;42.584;23.366;2023-05-10T10:04:49;7.17;84.38
66594;DHT22;53450;42.584;23.366;2023-05-10T10:07:14;7.35;84.43
66594;DHT22;53450;42.584;23.366;2023-05-10T10:09:40;7.34;84.11
66594;DHT22;53450;42.584;23.366;2023-05-10T10:12:05;7.41;84.20
66594;DHT22;53450;42.584;23.366;2023-05-10T10:14:31;7.36;83.64
66594;DHT22;53450;42.584;23.366;2023-05-10T10:17:00;7.25;83.95
66594;DHT22;53450;42.584;23.366;2023-05-10T10:19:26;7.32;84.20
66594;DHT22;53450;42.584;23.366;2023-05-10T10:21:52;7.28;84.64
66594;DHT22;53450;42.584;23.366;2023-05-10T10:24:17;7.31;84.31
66594;DHT22;53450;42.584;23.366;2023-05-10T10:26:43;7.38;84.18
66594;DHT22;53450;42.584;23.366;2023-05-10T10:29:23;7.38;84.11
66594;DHT22;53450;42.584;23.366;2023-05-10T10:32:10;7.47;84.14
66594;DHT22;53450;42.584;23.366;2023-05-10T10:34:38;7.51;83.41
66594;DHT22;53450;42.584;23.366;2023-05-10T10:37:06;7.51;82.94
66594;DHT22;53450;42.584;23.366;2023-05-10T10:39:32;7.52;83.06
66594;DHT22;53450;42.584;23.366;2023-05-10T10:41:58;7.78;83.98
66594;DHT22;53450;42.584;23.366;2023-05-10T10:57:51;7.65;82.72
66594;DHT22;53450;42.584;23.366;2023-05-10T11:00:29;7.68;83.28
66594;DHT22;53450;42.584;23.366;2023-05-10T11:03:10;7.79;83.26
66594;DHT22;53450;42.584;23.366;2023-05-10T11:05:48;8.16;82.79
66594;DHT22;53450;42.584;23.366;2023-05-10T11:08:16;7.94;82.12
66594;DHT22;53450;42.584;23.366;2023-05-10T11:11:07;7.85;82.79
66594;DHT22;53450;42.584;23.366;2023-05-10T11:13:40;7.86;83.38
66594;DHT22;53450;42.584;23.366;2023-05-10T11:16:23;7.89;83.13
66594;DHT22;53450;42.584;23.366;2023-05-10T11:19:07;7.96;83.23
66594;DHT22;53450;42.584;23.366;2023-05-10T11:21:45;7.99;82.83
66594;DHT22;53450;42.584;23.366;2023-05-10T11:24:15;7.96;82.56
66594;DHT22;53450;42.584;23.366;2023-05-10T11:26:41;7.89;82.64
66594;DHT22;53450;42.584;23.366;2023-05-10T11:29:07;7.90;82.94
66594;DHT22;53450;42.584;23.366;2023-05-10T11:31:43;7.93;83.19
66594;DHT22;53450;42.584;23.366;2023-05-10T11:34:10;7.83;82.89
66594;DHT22;53450;42.584;23.366;2023-05-10T11:36:36;7.79;82.91
66594;DHT22;53450;42.584;23.366;2023-05-10T11:39:29;7.75;83.24
66594;DHT22;53450;42.584;23.366;2023-05-10T11:42:20;7.76;83.25
66594;DHT22;53450;42.584;23.366;2023-05-10T11:44:46;7.66;83.25
66594;DHT22;53450;42.584;23.366;2023-05-10T11:47:12;7.82;83.79
66594;DHT22;53450;42.584;23.366;2023-05-10T11:49:38;7.73;82.94
66594;DHT22;53450;42.584;23.366;2023-05-10T11:52:07;7.66;83.82
66594;DHT22;53450;42.584;23.366;2023-05-10T11:54:33;7.70;83.89
66594;DHT22;53450;42.584;23.366;2023-05-10T11:57:02;7.72;83.64
66594;DHT22;53450;42.584;23.366;2023-05-10T11:59:28;7.73;84.43
66594;DHT22;53450;42.584;23.366;2023-05-10T12:01:54;7.69;83.93
66594;DHT22;53450;42.584;23.366;2023-05-10T12:04:19;7.78;83.97
66594;DHT22;53450;42.584;23.366;2023-05-10T12:06:45;7.79;83.71
66594;DHT22;53450;42.584;23.366;2023-05-10T12:09:12;7.70;84.04
66594;DHT22;53450;42.584;23.366;2023-05-10T12:11:39;8.01;83.77
66594;DHT22;53450;42.584;23.366;2023-05-10T12:14:06;8.51;83.25
66594;DHT22;53450;42.584;23.366;2023-05-10T12:16:32;8.90;80.92
66594;DHT22;53450;42.584;23.366;2023-05-10T12:18:59;9.19;79.39
66594;DHT22;53450;42.584;23.366;2023-05-10T12:21:26;9.41;78.48
66594;DHT22;53450;42.584;23.366;2023-05-10T12:23:54;9.36;78.60
66594;DHT22;53450;42.584;23.366;2023-05-10T12:26:27;9.17;78.62
66594;DHT22;53450;42.584;23.366;2023-05-10T12:28:54;9.15;79.72
66594;DHT22;53450;42.584;23.366;2023-05-10T12:31:20;8.96;79.53
66594;DHT22;53450;42.584;23.366;2023-05-10T12:33:46;8.86;80.34
66594;DHT22;53450;42.584;23.366;2023-05-10T12:36:14;9.02;80.14
66594;DHT22;53450;42.584;23.366;2023-05-10T12:38:40;9.02;80.01
66594;DHT22;53450;42.584;23.366;2023-05-10T12:41:12;9.15;79.35
66594;DHT22;53450;42.584;23.366;2023-05-10T12:43:39;8.80;79.63
66594;DHT22;53450;42.584;23.366;2023-05-10T12:48:32;8.96;80.07
66594;DHT22;53450;42.584;23.366;2023-05-10T12:51:02;8.98;80.42
66594;DHT22;53450;42.584;23.366;2023-05-10T12:53:28;8.93;80.00
66594;DHT22;53450;42.584;23.366;2023-05-10T12:55:56;8.76;80.52
66594;DHT22;53450;42.584;23.366;2023-05-10T12:58:22;8.69;80.95
66594;DHT22;53450;42.584;23.366;2023-05-10T13:00:48;8.83;80.45
66594;DHT22;53450;42.584;23.366;2023-05-10T13:03:13;8.88;80.07
66594;DHT22;53450;42.584;23.366;2023-05-10T13:05:41;8.68;79.77
66594;DHT22;53450;42.584;23.366;2023-05-10T13:08:06;8.90;79.98
66594;DHT22;53450;42.584;23.366;2023-05-10T13:10:32;9.17;78.92
66594;DHT22;53450;42.584;23.366;2023-05-10T13:12:58;8.96;79.48
66594;DHT22;53450;42.584;23.366;2023-05-10T13:15:25;9.06;79.09
66594;DHT22;53450;42.584;23.366;2023-05-10T13:17:50;9.06;79.87
66594;DHT22;53450;42.584;23.366;2023-05-10T13:20:16;9.16;78.98
66594;DHT22;53450;42.584;23.366;2023-05-10T13:22:45;9.17;79.12
66594;DHT22;53450;42.584;23.366;2023-05-10T13:25:11;9.23;79.38
66594;DHT22;53450;42.584;23.366;2023-05-10T13:27:40;8.89;79.01
66594;DHT22;53450;42.584;23.366;2023-05-10T13:30:08;8.62;80.03
66594;DHT22;53450;42.584;23.366;2023-05-10T13:32:34;8.48;81.02
66594;DHT22;53450;42.584;23.366;2023-05-10T13:34:59;8.37;81.29
66594;DHT22;53450;42.584;23.366;2023-05-10T13:37:25;8.31;81.26
66594;DHT22;53450;42.584;23.366;2023-05-10T13:39:51;8.28;81.86
66594;DHT22;53450;42.584;23.366;2023-05-10T13:42:17;8.26;82.00
66594;DHT22;53450;42.584;23.366;2023-05-10T13:44:43;8.20;82.12
66594;DHT22;53450;42.584;23.366;2023-05-10T13:47:08;8.28;82.06
66594;DHT22;53450;42.584;23.366;2023-05-10T13:49:34;8.80;80.85
66594;DHT22;53450;42.584;23.366;2023-05-10T13:52:03;9.22;79.63
66594;DHT22;53450;42.584;23.366;2023-05-10T13:54:57;9.22;79.66
66594;DHT22;53450;42.584;23.366;2023-05-10T13:57:48;9.20;79.93
66594;DHT22;53450;42.584;23.366;2023-05-10T14:00:14;9.27;80.84
66594;DHT22;53450;42.584;23.366;2023-05-10T14:02:40;9.34;79.99
66594;DHT22;53450;42.584;23.366;2023-05-10T14:05:06;9.36;79.90
66594;DHT22;53450;42.584;23.366;2023-05-10T14:07:32;9.48;79.58
66594;DHT22;53450;42.584;23.366;2023-05-10T14:09:57;9.54;78.63
66594;DHT22;53450;42.584;23.366;2023-05-10T14:12:23;9.65;78.64
66594;DHT22;53450;42.584;23.366;2023-05-10T14:14:48;9.68;78.08
66594;DHT22;53450;42.584;23.366;2023-05-10T14:17:14;9.62;78.22
66594;DHT22;53450;42.584;23.366;2023-05-10T14:19:39;9.65;78.74
66594;DHT22;53450;42.584;23.366;2023-05-10T14:22:05;9.64;78.32
66594;DHT22;53450;42.584;23.366;2023-05-10T14:24:31;9.51;78.77
66594;DHT22;53450;42.584;23.366;2023-05-10T14:26:56;9.55;80.13
66594;DHT22;53450;42.584;23.366;2023-05-10T14:29:22;9.65;79.59
66594;DHT22;53450;42.584;23.366;2023-05-10T14:31:48;9.70;78.92
66594;DHT22;53450;42.584;23.366;2023-05-10T14:34:13;9.58;78.98
66594;DHT22;53450;42.584;23.366;2023-05-10T14:36:39;9.48;79.24
66594;DHT22;53450;42.584;23.366;2023-05-10T14:39:05;9.24;79.42
66594;DHT22;53450;42.584;23.366;2023-05-10T14:41:31;9.10;80.15
66594;DHT22;53450;42.584;23.366;2023-05-10T14:43:58;8.86;80.57
66594;DHT22;53450;42.584;23.366;2023-05-10T14:46:23;8.93;80.17
66594;DHT22;53450;42.584;23.366;2023-05-10T14:48:49;8.99;80.67
66594;DHT22;53450;42.584;23.366;2023-05-10T14:51:14;8.95;81.02
66594;DHT22;53450;42.584;23.366;2023-05-10T14:53:40;8.86;80.94
66594;DHT22;53450;42.584;23.366;2023-05-10T14:56:06;8.75;81.70
66594;DHT22;53450;42.584;23.366;2023-05-10T14:58:32;8.51;81.99
66594;DHT22;53450;42.584;23.366;2023-05-10T15:00:57;8.49;82.84
66594;DHT22;53450;42.584;23.366;2023-05-10T15:03:25;8.54;82.42
66594;DHT22;53450;42.584;23.366;2023-05-10T15:05:51;8.54;82.61
66594;DHT22;53450;42.584;23.366;2023-05-10T15:08:42;8.52;81.88
66594;DHT22;53450;42.584;23.366;2023-05-10T15:11:33;8.45;82.49
66594;DHT22;53450;42.584;23.366;2023-05-10T15:13:58;8.51;82.13
66594;DHT22;53450;42.584;23.366;2023-05-10T15:16:24;8.55;82.34
66594;DHT22;53450;42.584;23.366;2023-05-10T15:18:50;8.61;82.49
66594;DHT22;53450;42.584;23.366;2023-05-10T15:21:15;8.61;81.67
66594;DHT22;53450;42.584;23.366;2023-05-10T15:23:41;8.61;81.92
66594;DHT22;53450;42.584;23.366;2023-05-10T15:26:09;8.52;81.53
66594;DHT22;53450;42.584;23.366;2023-05-10T15:28:34;8.51;81.34
66594;DHT22;53450;42.584;23.366;2023-05-10T15:31:00;8.48;81.71
66594;DHT22;53450;42.584;23.366;2023-05-10T15:33:51;8.37;82.12
66594;DHT22;53450;42.584;23.366;2023-05-10T15:36:42;8.41;81.69
66594;DHT22;53450;42.584;23.366;2023-05-10T15:39:33;8.42;81.97
66594;DHT22;53450;42.584;23.366;2023-05-10T15:42:24;8.37;81.99
66594;DHT22;53450;42.584;23.366;2023-05-10T15:44:50;8.37;81.78
66594;DHT22;53450;42.584;23.366;2023-05-10T15:47:15;8.31;81.48
66594;DHT22;53450;42.584;23.366;2023-05-10T15:49:41;8.45;81.76
66594;DHT22;53450;42.584;23.366;2023-05-10T15:52:06;8.52;81.15
66594;DHT22;53450;42.584;23.366;2023-05-10T15:54:35;8.55;80.67
66594;DHT22;53450;42.584;23.366;2023-05-10T15:57:00;8.44;80.90
66594;DHT22;53450;42.584;23.366;2023-05-10T15:59:26;8.36;81.26
66594;DHT22;53450;42.584;23.366;2023-05-10T16:01:51;8.41;81.19
66594;DHT22;53450;42.584;23.366;2023-05-10T16:04:22;8.33;81.55
66594;DHT22;53450;42.584;23.366;2023-05-10T16:06:51;8.23;81.90